createdAt,value
2022-09-04T00:00:09.147Z,99.90
2022-09-04T00:03:05.675Z,99.90
2022-09-04T00:05:37.740Z,99.90
2022-09-04T00:08:31.259Z,99.90
2022-09-04T00:11:12.788Z,99.90
2022-09-04T00:13:48.720Z,99.90
2022-09-04T00:16:22.195Z,99.90
2022-09-04T00:19:21.227Z,99.90
2022-09-04T00:21:56.546Z,99.90
2022-09-04T00:24:31.160Z,99.90
2022-09-04T00:27:07.401Z,99.90
2022-09-04T00:29:53.023Z,99.90
2022-09-04T00:32:25.463Z,99.90
2022-09-04T00:35:01.924Z,99.90
2022-09-04T00:37:35.097Z,99.90
2022-09-04T00:40:09.341Z,99.90
2022-09-04T00:42:51.050Z,99.90
2022-09-04T00:45:48.945Z,99.90
2022-09-04T00:48:23.315Z,99.90
2022-09-04T00:51:16.870Z,99.90
2022-09-04T00:54:11.054Z,99.90
2022-09-04T00:57:03.571Z,99.90
2022-09-04T01:00:01.469Z,99.90
2022-09-04T01:02:42.881Z,99.90
2022-09-04T01:05:27.311Z,99.90
2022-09-04T01:08:20.634Z,99.90
2022-09-04T01:11:09.008Z,99.90
2022-09-04T01:14:14.384Z,99.90
2022-09-04T01:16:47.931Z,99.90
2022-09-04T01:19:14.619Z,99.90
2022-09-04T01:21:44.452Z,99.90
2022-09-04T01:24:25.519Z,99.90
2022-09-04T01:27:16.193Z,99.90
2022-09-04T01:30:05.780Z,99.90
2022-09-04T01:32:43.669Z,99.90
2022-09-04T01:35:27.621Z,99.90
2022-09-04T01:38:03.079Z,99.90
2022-09-04T01:40:39.665Z,99.90
2022-09-04T01:43:12.639Z,99.90
2022-09-04T01:46:00.607Z,99.90
2022-09-04T01:48:48.022Z,99.90
2022-09-04T01:51:34.029Z,99.90
2022-09-04T01:54:44.773Z,99.90
2022-09-04T01:57:32.704Z,99.90
2022-09-04T02:00:10.502Z,99.90
2022-09-04T02:02:55.944Z,99.90
2022-09-04T02:05:25.556Z,99.90
2022-09-04T02:08:26.831Z,99.90
2022-09-04T02:11:15.798Z,99.90
2022-09-04T02:14:08.622Z,99.90
2022-09-04T02:16:54.068Z,99.90
2022-09-04T02:19:35.109Z,99.90
2022-09-04T02:22:15.972Z,99.90
2022-09-04T02:24:58.804Z,99.90
2022-09-04T02:28:03.840Z,99.90
2022-09-04T02:30:54.117Z,99.90
2022-09-04T02:33:31.118Z,99.90
2022-09-04T02:36:23.444Z,99.90
2022-09-04T02:39:05.157Z,99.90
2022-09-04T02:41:51.002Z,99.90
2022-09-04T02:44:39.376Z,99.90
2022-09-04T02:47:31.190Z,99.90
2022-09-04T02:50:17.243Z,99.90
2022-09-04T02:52:52.424Z,99.90
2022-09-04T02:55:44.478Z,99.90
2022-09-04T02:58:47.566Z,99.90
2022-09-04T03:01:20.313Z,99.90
2022-09-04T03:04:12.748Z,99.90
2022-09-04T03:06:57.142Z,99.90
2022-09-04T03:09:46.621Z,99.90
2022-09-04T03:12:37.246Z,99.90
2022-09-04T03:15:29.337Z,99.90
2022-09-04T03:18:04.830Z,99.90
2022-09-04T03:20:44.651Z,99.90
2022-09-04T03:23:36.599Z,99.90
2022-09-04T03:26:20.714Z,99.90
2022-09-04T03:28:56.506Z,99.90
2022-09-04T03:31:34.258Z,99.90
2022-09-04T03:34:39.211Z,99.90
2022-09-04T03:37:27.492Z,99.90
2022-09-04T03:40:21.583Z,99.90
2022-09-04T03:43:12.653Z,99.90
2022-09-04T03:45:57.513Z,99.90
2022-09-04T03:48:51.820Z,99.90
2022-09-04T03:51:42.708Z,99.90
2022-09-04T03:54:26.040Z,99.90
2022-09-04T03:57:06.290Z,99.90
2022-09-04T03:59:47.690Z,99.90
2022-09-04T04:02:30.052Z,99.90
2022-09-04T04:05:08.925Z,99.90
2022-09-04T04:07:47.928Z,99.90
2022-09-04T04:10:33.723Z,99.90
2022-09-04T04:13:27.694Z,99.90
2022-09-04T04:16:10.966Z,99.90
2022-09-04T04:19:10.771Z,99.90
2022-09-04T04:22:01.512Z,99.90
2022-09-04T04:24:39.652Z,99.90
2022-09-04T04:27:27.717Z,99.90
2022-09-04T04:30:09.800Z,99.90
2022-09-04T04:33:10.390Z,99.90
2022-09-04T04:35:52.036Z,99.90
2022-09-04T04:38:55.074Z,99.90
2022-09-04T04:42:00.811Z,99.90
2022-09-04T04:45:04.095Z,99.90
2022-09-04T04:47:50.271Z,99.90
2022-09-04T04:50:41.919Z,99.90
2022-09-04T04:53:32.291Z,99.90
2022-09-04T04:56:34.060Z,99.90
2022-09-04T04:59:13.850Z,99.90
2022-09-04T05:02:07.809Z,99.90
2022-09-04T05:05:02.856Z,99.90
2022-09-04T05:07:37.621Z,99.90
2022-09-04T05:10:23.331Z,99.90
2022-09-04T05:13:10.213Z,99.90
2022-09-04T05:16:08.018Z,99.90
2022-09-04T05:19:00.239Z,99.90
2022-09-04T05:21:36.571Z,99.90
2022-09-04T05:24:13.252Z,99.90
2022-09-04T05:26:52.914Z,99.90
2022-09-04T05:29:22.862Z,99.90
2022-09-04T05:32:01.236Z,99.90
2022-09-04T05:34:39.801Z,99.90
2022-09-04T05:37:51.044Z,99.90
2022-09-04T05:40:47.268Z,99.90
2022-09-04T05:43:39.006Z,99.90
2022-09-04T05:46:30.848Z,99.90
2022-09-04T05:49:09.211Z,99.90
2022-09-04T05:51:53.077Z,99.90
2022-09-04T05:54:51.810Z,99.90
2022-09-04T05:57:25.583Z,99.90
2022-09-04T06:00:04.152Z,99.90
2022-09-04T06:02:45.944Z,99.90
2022-09-04T06:05:46.853Z,99.90
2022-09-04T06:08:32.998Z,99.90
2022-09-04T06:11:25.668Z,99.90
2022-09-04T06:14:03.416Z,99.90
2022-09-04T06:16:55.450Z,99.90
2022-09-04T06:23:24.778Z,99.90
2022-09-04T06:26:00.427Z,99.90
2022-09-04T06:38:26.265Z,99.90
2022-09-04T06:41:12.303Z,99.90
2022-09-04T06:43:55.936Z,99.90
2022-09-04T06:46:41.488Z,99.90
2022-09-04T06:49:15.632Z,99.90
2022-09-04T06:52:21.190Z,99.90
2022-09-04T06:55:00.518Z,99.90
2022-09-04T06:57:46.508Z,99.90
2022-09-04T07:03:19.618Z,99.90
2022-09-04T07:06:04.174Z,99.90
2022-09-04T07:09:16.893Z,99.90
2022-09-04T07:12:09.847Z,99.90
2022-09-04T07:14:49.591Z,99.90
2022-09-04T07:17:33.434Z,99.90
2022-09-04T07:20:22.274Z,99.90
2022-09-04T07:23:15.967Z,99.90
2022-09-04T07:26:11.365Z,99.90
2022-09-04T07:32:11.317Z,99.90
2022-09-04T07:34:51.056Z,99.90
2022-09-04T07:37:25.091Z,99.90
2022-09-04T07:40:17.619Z,99.90
2022-09-04T07:42:57.565Z,99.90
2022-09-04T07:45:37.009Z,99.90
2022-09-04T07:51:05.296Z,99.90
2022-09-04T07:53:44.017Z,99.90
2022-09-04T07:56:17.211Z,99.90
2022-09-04T08:02:10.187Z,99.90
2022-09-04T08:05:12.720Z,99.90
2022-09-04T08:07:39.508Z,99.90
2022-09-04T08:14:04.531Z,99.90
2022-09-04T08:16:43.660Z,99.90
2022-09-04T08:22:48.925Z,99.90
2022-09-04T08:25:46.299Z,99.90
2022-09-04T08:28:26.934Z,99.90
2022-09-04T08:31:03.981Z,99.90
2022-09-04T08:33:54.221Z,99.90
2022-09-04T08:36:32.752Z,99.90
2022-09-04T08:39:22.824Z,99.90
2022-09-04T08:42:08.200Z,99.90
2022-09-04T08:44:58.184Z,99.90
2022-09-04T08:48:03.531Z,99.90
2022-09-04T08:50:58.711Z,99.90
2022-09-04T08:53:47.085Z,99.90
2022-09-04T08:56:47.213Z,99.90
2022-09-04T09:02:19.540Z,99.90
2022-09-04T09:04:47.800Z,99.90
2022-09-04T09:07:37.347Z,99.90
2022-09-04T09:10:23.133Z,99.90
2022-09-04T09:16:22.782Z,99.90
2022-09-04T09:19:22.850Z,99.90
2022-09-04T09:25:35.939Z,99.90
2022-09-04T09:28:27.563Z,99.90
2022-09-04T09:31:10.136Z,99.90
2022-09-04T09:33:54.943Z,99.90
2022-09-04T09:37:00.173Z,99.90
2022-09-04T09:43:04.413Z,99.90
2022-09-04T09:45:55.802Z,99.90
2022-09-04T09:48:48.492Z,99.90
2022-09-04T09:51:49.431Z,99.90
2022-09-04T09:54:16.260Z,99.90
2022-09-04T09:57:09.113Z,99.90
2022-09-04T10:00:06.680Z,99.90
2022-09-04T10:02:52.165Z,99.90
2022-09-04T10:05:49.567Z,99.90
2022-09-04T10:08:54.058Z,99.90
2022-09-04T10:11:29.212Z,99.90
2022-09-04T10:14:23.170Z,99.90
2022-09-04T10:17:19.474Z,99.90
2022-09-04T10:20:16.675Z,99.90
2022-09-04T10:22:55.622Z,99.90
2022-09-04T10:25:49.052Z,99.90
2022-09-04T10:28:25.944Z,99.90
2022-09-04T10:31:26.117Z,99.90
2022-09-04T10:34:14.854Z,99.90
2022-09-04T10:37:20.266Z,99.90
2022-09-04T10:40:44.453Z,99.90
2022-09-04T10:43:37.222Z,99.90
2022-09-04T10:46:23.365Z,99.90
2022-09-04T10:49:19.320Z,99.90
2022-09-04T10:52:24.582Z,99.90
2022-09-04T10:55:29.181Z,99.90
2022-09-04T10:58:19.076Z,99.90
2022-09-04T11:01:03.389Z,99.90
2022-09-04T11:03:57.432Z,99.90
2022-09-04T11:06:52.815Z,99.90
2022-09-04T11:09:42.116Z,99.90
2022-09-04T11:22:35.015Z,99.90
2022-09-04T11:25:37.419Z,99.90
2022-09-04T11:28:32.283Z,99.90
2022-09-04T11:31:14.481Z,99.90
2022-09-04T11:34:04.987Z,99.90
2022-09-04T11:36:53.199Z,99.90
2022-09-04T11:39:45.925Z,99.70
2022-09-04T11:42:33.846Z,98.40
2022-09-04T11:45:26.989Z,97.60
2022-09-04T11:48:03.142Z,98.40
2022-09-04T11:50:43.521Z,97.70
2022-09-04T11:53:37.717Z,97.40
2022-09-04T11:56:25.635Z,96.60
2022-09-04T11:59:12.284Z,97.70
2022-09-04T12:01:52.329Z,97.30
2022-09-04T12:04:42.985Z,97.10
2022-09-04T12:07:25.806Z,96.30
2022-09-04T12:10:12.316Z,96.90
2022-09-04T12:13:14.632Z,97.20
2022-09-04T12:16:07.954Z,97.30
2022-09-04T12:19:00.972Z,97.20
2022-09-04T12:21:35.805Z,96.70
2022-09-04T12:24:24.083Z,95.50
2022-09-04T12:27:12.547Z,95.90
2022-09-04T12:29:48.060Z,96.30
2022-09-04T12:32:35.939Z,96.80
2022-09-04T12:35:25.768Z,96.90
2022-09-04T12:38:24.444Z,96.40
2022-09-04T12:41:14.269Z,96.60
2022-09-04T12:43:48.651Z,97.10
2022-09-04T12:46:35.743Z,96.70
2022-09-04T12:49:29.366Z,97.30
2022-09-04T12:52:19.389Z,97.40
2022-09-04T12:54:52.363Z,97.40
2022-09-04T12:57:22.478Z,97.80
2022-09-04T13:00:12.097Z,98.10
2022-09-04T13:02:45.089Z,98.80
2022-09-04T13:05:56.548Z,98.70
2022-09-04T13:08:33.303Z,98.40
2022-09-04T13:11:30.960Z,98.40
2022-09-04T13:14:18.898Z,98.40
2022-09-04T13:17:15.495Z,98.70
2022-09-04T13:19:54.982Z,98.10
2022-09-04T13:22:36.099Z,98.30
2022-09-04T13:25:16.111Z,98.50
2022-09-04T13:28:12.117Z,98.20
2022-09-04T13:30:57.227Z,98.60
2022-09-04T13:33:51.291Z,98.40
2022-09-04T13:36:23.999Z,98.20
2022-09-04T13:39:31.053Z,98.60
2022-09-04T13:42:13.329Z,98.30
2022-09-04T13:44:58.260Z,97.90
2022-09-04T13:47:32.769Z,98.20
2022-09-04T13:50:17.158Z,98.10
2022-09-04T13:52:59.526Z,98.00
2022-09-04T13:55:38.761Z,97.90
2022-09-04T13:58:20.025Z,97.90
2022-09-04T14:00:51.772Z,97.80
2022-09-04T14:03:41.297Z,97.80
2022-09-04T14:06:11.502Z,98.00
2022-09-04T14:08:39.835Z,97.50
2022-09-04T14:11:30.099Z,97.90
2022-09-04T14:14:30.744Z,97.10
2022-09-04T14:16:58.481Z,97.30
2022-09-04T14:19:57.679Z,97.50
2022-09-04T14:22:33.659Z,96.90
2022-09-04T14:25:11.664Z,97.10
2022-09-04T14:27:50.658Z,96.70
2022-09-04T14:30:22.222Z,96.70
2022-09-04T14:33:18.908Z,96.80
2022-09-04T14:36:07.203Z,96.70
2022-09-04T14:39:01.015Z,96.90
2022-09-04T14:41:52.096Z,96.50
2022-09-04T14:44:45.073Z,96.10
2022-09-04T14:47:33.510Z,96.60
2022-09-04T14:50:01.346Z,96.60
2022-09-04T14:53:17.290Z,96.00
2022-09-04T14:56:27.788Z,96.20
2022-09-04T14:59:12.968Z,95.90
2022-09-04T15:02:08.988Z,95.70
2022-09-04T15:07:42.209Z,95.30
2022-09-04T15:10:26.963Z,95.50
2022-09-04T15:13:18.586Z,95.50
2022-09-04T15:18:53.740Z,95.20
2022-09-04T15:21:55.909Z,94.70
2022-09-04T15:24:32.790Z,95.00
2022-09-04T15:27:45.712Z,95.20
2022-09-04T15:30:22.203Z,95.40
2022-09-04T15:33:02.762Z,95.50
2022-09-04T15:35:33.914Z,95.60
2022-09-04T15:38:25.401Z,95.30
2022-09-04T15:41:15.570Z,95.60
2022-09-04T15:43:48.395Z,95.10
2022-09-04T15:46:37.432Z,94.90
2022-09-04T15:49:28.890Z,95.10
2022-09-04T15:58:33.606Z,95.40
2022-09-04T16:01:06.724Z,95.40
2022-09-04T16:03:42.267Z,95.40
2022-09-04T16:09:20.812Z,95.20
2022-09-04T16:12:10.274Z,95.00
2022-09-04T16:14:44.565Z,94.90
2022-09-04T16:17:26.091Z,95.10
2022-09-04T16:20:08.928Z,94.90
2022-09-04T16:25:50.611Z,94.50
2022-09-04T16:28:31.314Z,94.40
2022-09-04T16:34:20.026Z,94.10
2022-09-04T16:36:53.162Z,94.20
2022-09-04T16:42:37.615Z,94.10
2022-09-04T16:45:13.582Z,94.70
2022-09-04T16:48:33.938Z,94.90
2022-09-04T16:51:29.253Z,95.10
2022-09-04T16:57:13.514Z,95.20
2022-09-04T17:00:14.191Z,95.00
2022-09-04T17:06:06.237Z,95.20
2022-09-04T17:08:45.877Z,94.90
2022-09-04T17:14:36.086Z,94.90
2022-09-04T17:17:31.649Z,95.50
2022-09-04T17:20:03.770Z,95.50
2022-09-04T17:29:08.972Z,96.00
2022-09-04T17:29:08.974Z,96.10
2022-09-04T17:31:48.696Z,95.60
2022-09-04T17:40:43.842Z,95.90
2022-09-04T17:40:44.000Z,96.00
2022-09-04T17:41:34.444Z,96.50
2022-09-04T17:44:26.056Z,96.70
2022-09-04T17:47:20.436Z,97.10
2022-09-04T17:49:50.767Z,97.60
2022-09-04T17:52:31.019Z,97.70
2022-09-04T17:58:15.288Z,98.40
2022-09-04T18:01:14.128Z,98.60
2022-09-04T18:04:20.500Z,98.60
2022-09-04T18:06:56.918Z,98.80
2022-09-04T18:12:37.811Z,99.40
2022-09-04T18:15:33.528Z,99.70
2022-09-04T18:18:28.562Z,99.90
2022-09-04T18:20:55.578Z,99.90
2022-09-04T18:23:48.154Z,99.90
2022-09-04T18:26:41.175Z,99.90
2022-09-04T18:30:13.888Z,99.90
2022-09-04T18:37:22.643Z,99.90
2022-09-04T18:37:44.245Z,99.90
2022-09-04T18:39:09.728Z,99.90
2022-09-04T18:49:25.148Z,99.90
2022-09-04T18:50:44.413Z,99.90
2022-09-04T18:51:26.658Z,99.90
2022-09-04T18:54:14.136Z,99.90
2022-09-04T18:56:47.835Z,99.90
2022-09-04T19:02:23.184Z,99.90
2022-09-04T19:04:50.355Z,99.90
2022-09-04T19:10:26.526Z,99.90
2022-09-04T19:13:01.895Z,99.90
2022-09-04T19:21:36.229Z,99.90
2022-09-04T19:24:18.017Z,99.90
2022-09-04T19:27:02.376Z,99.90
2022-09-04T19:29:54.372Z,99.90
2022-09-04T19:32:46.443Z,99.90
2022-09-04T19:35:23.211Z,99.90
2022-09-04T19:42:12.873Z,99.90
2022-09-04T19:46:03.406Z,99.90
2022-09-04T19:47:31.137Z,99.90
2022-09-04T19:53:20.078Z,99.90
2022-09-04T19:53:40.755Z,99.90
2022-09-04T19:59:45.814Z,99.90
2022-09-04T20:02:30.359Z,99.90
2022-09-04T20:08:26.413Z,99.90
2022-09-04T20:11:01.654Z,99.90
2022-09-04T20:13:47.741Z,99.90
2022-09-04T20:19:39.694Z,99.90
2022-09-04T20:22:09.302Z,99.90
2022-09-04T20:24:43.277Z,99.90
2022-09-04T20:27:40.355Z,99.90
2022-09-04T20:30:31.987Z,99.90
2022-09-04T20:33:19.719Z,99.90
2022-09-04T20:35:59.876Z,99.90
2022-09-04T20:38:48.937Z,99.90
2022-09-04T20:41:42.500Z,99.90
2022-09-04T20:44:13.378Z,99.90
2022-09-04T20:52:55.061Z,99.90
2022-09-04T20:53:55.519Z,99.90
2022-09-04T20:57:43.566Z,99.90
2022-09-04T21:03:14.434Z,99.90
2022-09-04T21:06:30.071Z,99.90
2022-09-04T21:09:35.420Z,99.90
2022-09-04T21:12:30.623Z,99.90
2022-09-04T21:15:08.635Z,99.90
2022-09-04T21:21:23.207Z,99.90
2022-09-04T21:24:02.780Z,99.90
2022-09-04T21:26:43.312Z,99.90
2022-09-04T21:29:28.907Z,99.90
2022-09-04T21:32:17.344Z,99.90
2022-09-04T21:34:54.737Z,99.90
2022-09-04T21:37:53.216Z,99.90
2022-09-04T21:40:59.737Z,99.90
2022-09-04T21:43:33.400Z,99.90
2022-09-04T21:46:28.921Z,99.90
2022-09-04T21:52:33.007Z,99.90
2022-09-04T21:59:01.963Z,99.90
2022-09-04T22:02:45.897Z,99.90
2022-09-04T22:04:13.606Z,99.90
2022-09-04T22:13:29.417Z,99.90
2022-09-04T22:13:47.911Z,99.90
2022-09-04T22:19:55.751Z,99.90
2022-09-04T22:23:06.714Z,99.90
2022-09-04T22:25:47.772Z,99.90
2022-09-04T22:28:15.263Z,99.90
2022-09-04T22:31:19.926Z,99.90
2022-09-04T22:34:15.650Z,99.90
2022-09-04T22:49:49.712Z,99.90
2022-09-04T22:52:52.312Z,99.90
2022-09-04T22:56:08.066Z,99.90
2022-09-04T23:01:56.210Z,99.90
2022-09-04T23:04:58.412Z,99.90
2022-09-04T23:14:05.136Z,99.90
2022-09-04T23:16:45.691Z,99.90
2022-09-04T23:26:35.670Z,99.90
2022-09-04T23:26:43.218Z,99.90
2022-09-04T23:26:50.177Z,99.90
2022-09-04T23:32:29.746Z,99.90
2022-09-04T23:35:15.857Z,99.90
2022-09-04T23:38:03.959Z,99.90
2022-09-04T23:40:38.178Z,99.90
2022-09-04T23:46:23.742Z,99.90
2022-09-04T23:49:06.897Z,99.90
2022-09-04T23:52:04.973Z,99.90
2022-09-04T23:54:53.527Z,99.90
2022-09-04T23:57:44.839Z,99.90
